Time;durP1;ratioP1;P1;durP2;ratioP2;P2;SDS_P1;SDS_P2;PMS_P1;PMS_P2;Temp;Humidity;BMP_temperature;BMP_pressure;BME280_temperature;BME280_humidity;BME280_pressure;Samples;Min_cycle;Max_cycle;Signal;HPM_P1;HPM_P2
2022/04/09 00:00:07;;;;;;;0.50;0.47;;;14.50;92.20;;;;;;4854172;29;20945;-59
2022/04/09 00:02:40;;;;;;;1.33;0.40;;;14.40;92.80;;;;;;4847633;29;20488;-60
2022/04/09 00:05:12;;;;;;;0.83;0.50;;;14.40;92.20;;;;;;4849432;29;20955;-60
2022/04/09 00:07:43;;;;;;;0.50;0.40;;;14.40;92.10;;;;;;4848871;29;20939;-60
2022/04/09 00:10:15;;;;;;;1.60;0.40;;;14.40;91.10;;;;;;4847626;29;20471;-60
2022/04/09 00:12:47;;;;;;;0.70;0.70;;;14.20;91.00;;;;;;4849534;29;20593;-60
2022/04/09 00:15:18;;;;;;;0.50;0.50;;;14.20;90.70;;;;;;4843858;29;20485;-60
2022/04/09 00:17:50;;;;;;;0.40;0.40;;;14.00;90.00;;;;;;4844158;29;20466;-59
2022/04/09 00:20:22;;;;;;;0.60;0.40;;;13.80;91.20;;;;;;4847590;29;20463;-59
2022/04/09 00:22:53;;;;;;;0.60;0.43;;;13.90;90.10;;;;;;4846339;29;20504;-60
2022/04/09 00:25:24;;;;;;;0.47;0.47;;;13.90;87.50;;;;;;4844704;29;20472;-60
2022/04/09 00:27:55;;;;;;;0.77;0.50;;;13.90;88.10;;;;;;4851085;29;20477;-59
2022/04/09 00:30:26;;;;;;;0.87;0.40;;;13.90;85.90;;;;;;4850969;29;20454;-59
2022/04/09 00:32:58;;;;;;;0.83;0.60;;;14.00;86.50;;;;;;4847962;29;20455;-59
2022/04/09 00:35:29;;;;;;;1.07;0.40;;;14.10;87.50;;;;;;4841972;29;20803;-59
2022/04/09 00:38:00;;;;;;;0.60;0.50;;;13.80;87.60;;;;;;4845571;29;20458;-60
2022/04/09 00:40:30;;;;;;;0.50;0.50;;;13.80;89.30;;;;;;4851459;29;20466;-60
2022/04/09 00:43:01;;;;;;;0.90;0.70;;;13.80;89.40;;;;;;4849976;29;20501;-59
2022/04/09 00:45:32;;;;;;;0.73;0.40;;;13.70;90.10;;;;;;4835005;29;20451;-61
2022/04/09 00:48:10;;;;;;;1.00;0.60;;;13.50;90.80;;;;;;4849017;29;20491;-60
2022/04/09 00:50:40;;;;;;;0.70;0.60;;;13.40;90.60;;;;;;4837639;29;20558;-60
2022/04/09 00:53:12;;;;;;;0.97;0.43;;;13.30;90.50;;;;;;4847427;29;20477;-57
2022/04/09 00:58:32;;;;;;;0.80;0.40;;;13.10;90.00;;;;;;4848290;29;20540;-60
2022/04/09 01:01:04;;;;;;;0.70;0.40;;;13.20;90.40;;;;;;4849308;29;20486;-65
2022/04/09 01:03:39;;;;;;;2.83;0.70;;;13.20;88.70;;;;;;4847969;29;20543;-67
2022/04/09 01:06:14;;;;;;;0.80;0.50;;;13.40;88.80;;;;;;4836229;29;20523;-65
2022/04/09 01:08:45;;;;;;;3.03;0.63;;;13.60;89.10;;;;;;4843598;29;20458;-66
2022/04/09 01:11:16;;;;;;;0.90;0.70;;;13.40;84.90;;;;;;4842670;29;20471;-65
2022/04/09 01:13:47;;;;;;;3.30;0.70;;;13.20;87.10;;;;;;4836826;29;20499;-60
2022/04/09 01:16:17;;;;;;;2.60;0.80;;;13.10;88.00;;;;;;4848089;29;20498;-60
2022/04/09 01:18:50;;;;;;;1.07;0.60;;;13.10;89.20;;;;;;4852180;29;20526;-66
2022/04/09 01:21:21;;;;;;;1.03;0.70;;;13.10;91.10;;;;;;4845089;29;20461;-64
2022/04/09 01:23:54;;;;;;;0.67;0.67;;;13.00;92.80;;;;;;4838833;29;20528;-65
2022/04/09 01:26:28;;;;;;;1.80;0.87;;;12.70;92.90;;;;;;4838840;29;20481;-60
2022/04/09 01:29:01;;;;;;;0.87;0.50;;;12.60;93.70;;;;;;4841041;29;20489;-60
2022/04/09 01:31:31;;;;;;;3.87;0.70;;;12.60;93.10;;;;;;4844328;29;20450;-61
2022/04/09 01:34:03;;;;;;;0.90;0.70;;;12.40;93.10;;;;;;4838049;29;20462;-60
2022/04/09 01:36:34;;;;;;;0.80;0.60;;;12.40;96.90;;;;;;4833852;29;20467;-61
2022/04/09 01:39:07;;;;;;;2.50;1.20;;;12.30;99.90;;;;;;4840770;29;20471;-62
2022/04/09 01:41:37;;;;;;;2.77;0.93;;;12.30;99.90;;;;;;4845189;29;20460;-59
2022/04/09 01:44:09;;;;;;;2.33;0.53;;;12.30;99.90;;;;;;4843450;29;20494;-59
2022/04/09 01:46:44;;;;;;;0.80;0.73;;;12.00;99.90;;;;;;4844492;29;20465;-59
2022/04/09 01:49:15;;;;;;;1.73;0.57;;;11.80;99.90;;;;;;4850724;29;20450;-60
2022/04/09 01:51:51;;;;;;;3.27;0.70;;;11.90;99.90;;;;;;4844773;29;20469;-59
2022/04/09 01:54:25;;;;;;;0.70;0.53;;;11.70;99.90;;;;;;4836260;29;20502;-59
2022/04/09 01:56:56;;;;;;;3.53;0.80;;;11.50;99.90;;;;;;4840879;29;20582;-58
2022/04/09 01:59:27;;;;;;;0.80;0.70;;;11.30;99.90;;;;;;4847147;29;20473;-59
2022/04/09 02:02:01;;;;;;;1.63;1.53;;;11.30;99.90;;;;;;4840454;29;20485;-59
2022/04/09 02:04:32;;;;;;;1.07;0.90;;;11.00;99.90;;;;;;4848491;29;20482;-60
2022/04/09 02:07:07;;;;;;;1.87;0.93;;;10.80;99.90;;;;;;4844594;29;20856;-59
2022/04/09 02:09:40;;;;;;;1.50;0.90;;;10.70;99.90;;;;;;4845854;29;20650;-59
2022/04/09 02:12:15;;;;;;;2.83;1.13;;;10.70;99.90;;;;;;4836506;29;20478;-59
2022/04/09 02:14:46;;;;;;;0.57;0.57;;;10.60;99.90;;;;;;4847343;29;20474;-59
2022/04/09 02:17:19;;;;;;;0.60;0.40;;;10.50;99.90;;;;;;4839891;29;20469;-58
2022/04/09 02:19:50;;;;;;;0.83;0.60;;;10.40;99.90;;;;;;4847497;29;20466;-59
2022/04/09 02:22:26;;;;;;;0.50;0.50;;;10.30;99.90;;;;;;4843275;29;20467;-59
2022/04/09 02:24:59;;;;;;;0.70;0.60;;;10.30;99.90;;;;;;4843035;29;20256;-59
2022/04/09 02:27:30;;;;;;;3.33;0.97;;;10.30;99.90;;;;;;4841874;29;20473;-58
2022/04/09 02:30:01;;;;;;;1.43;0.73;;;10.20;99.90;;;;;;4835597;29;21008;-58
2022/04/09 02:32:41;;;;;;;0.70;0.60;;;10.10;99.90;;;;;;4844294;29;20468;-58
2022/04/09 02:35:13;;;;;;;1.73;0.80;;;10.00;99.90;;;;;;4846281;29;20466;-63
2022/04/09 02:37:44;;;;;;;1.77;0.53;;;9.90;99.90;;;;;;4838938;29;20462;-59
2022/04/09 02:40:17;;;;;;;1.27;0.60;;;9.90;99.90;;;;;;4846622;29;20466;-59
2022/04/09 02:42:52;;;;;;;0.80;0.80;;;9.80;99.90;;;;;;4846515;29;20477;-59
2022/04/09 02:45:24;;;;;;;1.33;0.83;;;9.80;99.90;;;;;;4848021;29;20473;-58
2022/04/09 02:47:55;;;;;;;0.93;0.50;;;9.70;99.90;;;;;;4841081;29;20473;-59
2022/04/09 02:50:26;;;;;;;0.67;0.60;;;9.60;99.90;;;;;;4850470;29;20462;-60
2022/04/09 02:52:57;;;;;;;0.60;0.60;;;9.50;99.90;;;;;;4843954;29;20488;-59
2022/04/09 02:55:29;;;;;;;1.07;0.80;;;9.40;99.90;;;;;;4842866;29;20460;-59
2022/04/09 02:58:01;;;;;;;1.00;0.80;;;9.40;99.90;;;;;;4842865;29;20482;-59
2022/04/09 03:00:35;;;;;;;0.87;0.73;;;9.40;99.90;;;;;;4833404;29;20527;-59
2022/04/09 03:03:06;;;;;;;1.10;1.07;;;9.30;99.90;;;;;;4844181;29;20463;-58
2022/04/09 03:05:37;;;;;;;2.70;2.23;;;9.40;99.90;;;;;;4841971;29;20557;-60
2022/04/09 03:08:09;;;;;;;13.95;11.50;;;9.40;99.90;;;;;;4842111;29;20482;-60
2022/04/09 03:10:41;;;;;;;6.13;5.60;;;9.40;99.90;;;;;;4839778;29;20214;-60
2022/04/09 03:13:12;;;;;;;1.83;1.73;;;9.40;99.90;;;;;;4837033;29;20583;-60
2022/04/09 03:15:43;;;;;;;2.33;1.60;;;9.50;99.90;;;;;;4843209;29;20473;-61
2022/04/09 03:18:14;;;;;;;1.40;1.30;;;9.60;99.90;;;;;;4848964;29;20562;-58
2022/04/09 03:20:45;;;;;;;1.63;1.10;;;9.60;99.90;;;;;;4846811;29;20506;-59
2022/04/09 03:23:15;;;;;;;1.50;1.27;;;9.60;99.90;;;;;;4838483;29;20466;-59
2022/04/09 03:25:48;;;;;;;2.90;1.23;;;9.70;99.90;;;;;;4846732;29;20465;-59
2022/04/09 03:28:19;;;;;;;1.00;0.73;;;9.70;99.90;;;;;;4840927;29;20457;-59
2022/04/09 03:30:50;;;;;;;1.80;0.77;;;9.70;99.90;;;;;;4850000;29;20469;-59
2022/04/09 03:33:21;;;;;;;0.80;0.80;;;9.60;99.90;;;;;;4852864;29;20454;-59
2022/04/09 03:35:52;;;;;;;2.23;2.03;;;9.60;99.90;;;;;;4850451;29;20476;-59
2022/04/09 03:38:23;;;;;;;2.33;1.50;;;9.50;99.90;;;;;;4848887;29;20472;-59
2022/04/09 03:40:55;;;;;;;4.20;1.20;;;9.40;99.90;;;;;;4848857;29;20466;-59
2022/04/09 03:43:28;;;;;;;1.87;0.80;;;9.40;99.90;;;;;;4852123;29;20783;-59
2022/04/09 03:45:59;;;;;;;0.90;0.87;;;9.40;99.90;;;;;;4848411;29;20470;-59
2022/04/09 03:48:30;;;;;;;1.17;0.83;;;9.50;99.90;;;;;;4852308;29;20567;-60
2022/04/09 03:51:01;;;;;;;1.03;0.93;;;9.50;99.90;;;;;;4846648;29;20457;-60
2022/04/09 03:53:32;;;;;;;1.60;0.90;;;9.50;99.90;;;;;;4850750;29;20473;-60
2022/04/09 03:56:04;;;;;;;2.28;1.15;;;9.50;99.90;;;;;;4845205;29;20462;-60
2022/04/09 03:58:39;;;;;;;0.73;0.60;;;9.50;99.90;;;;;;4844900;29;20209;-60
2022/04/09 04:01:12;;;;;;;2.90;1.00;;;9.60;99.90;;;;;;4852933;29;20465;-60
2022/04/09 04:03:44;;;;;;;0.80;0.70;;;9.60;99.90;;;;;;4846831;29;20447;-60
2022/04/09 04:06:15;;;;;;;1.23;0.70;;;9.70;99.90;;;;;;4849448;29;20539;-60
2022/04/09 04:08:50;;;;;;;0.93;0.57;;;9.70;99.90;;;;;;4844468;29;20522;-60
2022/04/09 04:11:22;;;;;;;1.37;0.73;;;9.70;99.90;;;;;;4845285;29;20497;-60
2022/04/09 04:13:53;;;;;;;1.80;1.10;;;9.70;99.90;;;;;;4847796;29;20782;-59
2022/04/09 04:16:24;;;;;;;1.42;1.33;;;9.70;99.90;;;;;;4843391;29;20959;-60
2022/04/09 04:18:55;;;;;;;2.80;1.17;;;9.80;99.90;;;;;;4848863;29;20277;-60
2022/04/09 04:21:26;;;;;;;0.97;0.87;;;9.70;99.90;;;;;;4846469;29;20455;-59
2022/04/09 04:23:56;;;;;;;0.90;0.77;;;9.70;99.90;;;;;;4849367;29;20466;-59
2022/04/09 04:26:29;;;;;;;2.67;1.20;;;9.80;99.90;;;;;;4850665;29;20272;-59
2022/04/09 04:29:00;;;;;;;2.00;1.30;;;9.70;99.90;;;;;;4839270;29;20466;-59
2022/04/09 04:31:30;;;;;;;2.53;1.23;;;9.70;99.90;;;;;;4849794;29;20837;-59
2022/04/09 04:34:04;;;;;;;1.57;1.17;;;9.70;99.90;;;;;;4842252;29;20519;-61
2022/04/09 04:36:35;;;;;;;1.10;0.97;;;9.60;99.90;;;;;;4848181;29;20484;-58
2022/04/09 04:39:06;;;;;;;1.93;1.13;;;9.70;99.90;;;;;;4845752;29;20492;-60
2022/04/09 04:41:39;;;;;;;2.33;1.10;;;9.70;99.90;;;;;;4845797;29;20581;-59
2022/04/09 04:44:10;;;;;;;1.70;1.13;;;9.70;99.90;;;;;;4848899;29;20482;-60
2022/04/09 04:46:42;;;;;;;1.80;1.00;;;9.80;99.90;;;;;;4836290;29;20463;-60
2022/04/09 04:49:13;;;;;;;1.43;1.10;;;9.70;99.90;;;;;;4843182;29;20226;-59
2022/04/09 04:51:46;;;;;;;2.50;1.30;;;9.70;99.90;;;;;;4844722;29;20532;-60
2022/04/09 04:54:21;;;;;;;1.73;1.30;;;9.70;99.90;;;;;;4844556;29;20463;-59
2022/04/09 04:56:53;;;;;;;1.75;1.30;;;9.70;99.90;;;;;;4848622;29;20462;-60
2022/04/09 04:59:24;;;;;;;1.40;1.30;;;9.60;99.90;;;;;;4837808;29;20218;-60
2022/04/09 05:01:56;;;;;;;1.10;1.00;;;9.60;99.90;;;;;;4845298;29;20909;-59
2022/04/09 05:04:27;;;;;;;1.93;1.27;;;9.50;99.90;;;;;;4848122;29;20561;-58
2022/04/09 05:06:58;;;;;;;2.77;1.13;;;9.60;99.90;;;;;;4852386;29;20501;-60
2022/04/09 05:09:29;;;;;;;1.58;1.23;;;9.60;99.90;;;;;;4851015;29;20474;-60
2022/04/09 05:12:03;;;;;;;1.17;1.07;;;9.60;99.90;;;;;;4834404;29;20273;-60
2022/04/09 05:14:33;;;;;;;8.90;2.50;;;9.60;99.90;;;;;;4850092;29;20469;-60
2022/04/09 05:17:05;;;;;;;2.20;1.13;;;9.60;99.90;;;;;;4838688;29;20463;-60
2022/04/09 05:19:35;;;;;;;3.20;1.13;;;9.70;99.90;;;;;;4852565;29;20470;-60
2022/04/09 05:22:06;;;;;;;1.17;0.70;;;9.60;99.90;;;;;;4852984;29;20463;-59
2022/04/09 05:24:37;;;;;;;1.80;1.13;;;9.50;99.90;;;;;;4845286;29;20494;-60
2022/04/09 05:27:09;;;;;;;1.10;0.80;;;9.60;99.90;;;;;;4842731;29;20605;-60
2022/04/09 05:29:40;;;;;;;1.10;0.90;;;9.40;99.90;;;;;;4835322;29;20551;-60
2022/04/09 05:32:12;;;;;;;1.40;0.60;;;9.40;99.90;;;;;;4851062;29;20518;-60
2022/04/09 05:34:43;;;;;;;0.73;0.60;;;9.40;99.90;;;;;;4838176;29;20915;-60
2022/04/09 05:37:13;;;;;;;2.70;0.87;;;9.30;99.90;;;;;;4844757;29;20489;-60
2022/04/09 05:39:46;;;;;;;1.53;1.07;;;9.20;99.90;;;;;;4847008;29;20458;-60
2022/04/09 05:42:19;;;;;;;1.30;0.90;;;9.10;99.90;;;;;;4847496;29;20467;-60
2022/04/09 05:44:50;;;;;;;1.13;0.60;;;9.20;99.90;;;;;;4845719;29;20490;-60
2022/04/09 05:47:21;;;;;;;2.35;1.05;;;9.20;99.90;;;;;;4851165;29;20206;-59
2022/04/09 05:49:51;;;;;;;1.75;1.00;;;9.10;99.90;;;;;;4852562;29;20213;-60
2022/04/09 05:52:22;;;;;;;1.05;0.65;;;9.20;99.90;;;;;;4850581;29;20216;-60
2022/04/09 05:54:53;;;;;;;1.23;0.73;;;9.10;99.90;;;;;;4847123;29;20229;-60
2022/04/09 05:57:26;;;;;;;0.83;0.70;;;9.10;99.90;;;;;;4845659;29;20463;-59
2022/04/09 05:59:57;;;;;;;1.83;0.88;;;9.20;99.90;;;;;;4851538;29;20462;-60
2022/04/09 06:02:27;;;;;;;1.13;0.52;;;9.10;99.90;;;;;;4847088;29;20213;-60
2022/04/09 06:04:59;;;;;;;1.50;0.80;;;9.20;99.90;;;;;;4841648;29;20260;-60
2022/04/09 06:07:30;;;;;;;1.52;0.68;;;9.20;99.90;;;;;;4848729;29;20481;-60
2022/04/09 06:10:03;;;;;;;2.00;0.83;;;9.20;99.90;;;;;;4836412;29;20228;-60
2022/04/09 06:12:37;;;;;;;1.97;1.13;;;9.10;99.90;;;;;;4848065;29;20458;-59
2022/04/09 06:15:09;;;;;;;1.13;0.90;;;9.00;99.90;;;;;;4851203;29;20458;-60
2022/04/09 06:17:40;;;;;;;3.90;0.70;;;8.90;99.90;;;;;;4841219;29;20220;-60
2022/04/09 06:20:11;;;;;;;2.03;0.80;;;8.80;99.90;;;;;;4839504;29;20451;-59
2022/04/09 06:22:42;;;;;;;4.05;1.00;;;8.90;99.90;;;;;;4837932;29;20469;-60
2022/04/09 06:25:13;;;;;;;1.17;1.08;;;8.80;99.90;;;;;;4840290;29;20267;-59
2022/04/09 06:27:46;;;;;;;1.27;0.75;;;8.80;99.90;;;;;;4847534;29;20212;-59
2022/04/09 06:30:17;;;;;;;3.45;1.10;;;8.70;99.90;;;;;;4842219;29;20205;-59
2022/04/09 06:32:48;;;;;;;3.78;0.80;;;8.70;99.90;;;;;;4848966;29;20209;-59
2022/04/09 06:35:19;;;;;;;1.50;0.95;;;8.60;99.90;;;;;;4842791;29;20208;-59
2022/04/09 06:37:50;;;;;;;2.15;1.20;;;8.60;99.90;;;;;;4847970;29;20221;-59
2022/04/09 06:40:21;;;;;;;2.78;0.90;;;8.60;99.90;;;;;;4836548;29;20236;-60
2022/04/09 06:42:53;;;;;;;1.60;1.00;;;8.60;99.90;;;;;;4847500;29;20217;-59
2022/04/09 06:45:24;;;;;;;1.67;1.23;;;8.60;99.90;;;;;;4849717;29;20240;-60
2022/04/09 06:47:57;;;;;;;1.30;1.10;;;8.60;99.90;;;;;;4845950;29;20505;-59
2022/04/09 06:50:29;;;;;;;2.90;1.35;;;8.50;99.90;;;;;;4846652;29;20191;-60
2022/04/09 06:53:00;;;;;;;2.20;0.93;;;8.50;99.90;;;;;;4838403;29;20205;-60
2022/04/09 06:55:31;;;;;;;1.27;0.93;;;8.50;99.90;;;;;;4839068;29;21160;-60
2022/04/09 06:58:04;;;;;;;2.42;1.08;;;8.40;99.90;;;;;;4843354;29;20252;-60
2022/04/09 07:00:39;;;;;;;2.08;1.00;;;8.40;99.90;;;;;;4837412;29;20233;-59
2022/04/09 07:03:10;;;;;;;7.93;1.30;;;8.40;99.90;;;;;;4838800;29;20202;-60
2022/04/09 07:05:41;;;;;;;1.30;0.87;;;8.50;99.90;;;;;;4844590;29;20229;-60
2022/04/09 07:08:12;;;;;;;1.20;1.10;;;8.50;99.90;;;;;;4848347;29;20496;-59
2022/04/09 07:10:43;;;;;;;3.95;0.80;;;8.50;99.90;;;;;;4850055;29;20225;-59
2022/04/09 07:13:15;;;;;;;1.47;1.30;;;8.50;99.90;;;;;;4841819;29;20324;-60
2022/04/09 07:15:46;;;;;;;4.05;1.55;;;8.50;99.90;;;;;;4833771;29;20466;-59
2022/04/09 07:18:17;;;;;;;2.60;0.93;;;8.50;99.90;;;;;;4841787;29;20233;-60
2022/04/09 07:20:47;;;;;;;1.52;0.88;;;8.30;99.90;;;;;;4843299;29;20466;-59
2022/04/09 07:23:18;;;;;;;3.00;1.30;;;8.40;99.90;;;;;;4834980;29;20211;-60
2022/04/09 07:25:49;;;;;;;2.15;1.52;;;8.40;99.90;;;;;;4838742;29;20236;-60
2022/04/09 07:28:21;;;;;;;2.30;1.20;;;8.40;99.90;;;;;;4848712;29;20209;-60
2022/04/09 07:30:52;;;;;;;3.95;1.00;;;8.30;99.90;;;;;;4850814;29;20224;-59
2022/04/09 07:33:23;;;;;;;1.67;1.30;;;8.20;99.90;;;;;;4850888;29;20216;-60
2022/04/09 07:35:58;;;;;;;2.67;1.15;;;8.10;99.90;;;;;;4850743;29;20212;-58
2022/04/09 07:38:29;;;;;;;1.45;1.35;;;8.00;99.90;;;;;;4833051;29;20754;-59
2022/04/09 07:40:59;;;;;;;1.60;0.90;;;8.00;99.90;;;;;;4837629;29;20233;-59
2022/04/09 07:43:32;;;;;;;2.35;1.15;;;7.80;99.90;;;;;;4840352;29;20210;-59
2022/04/09 07:46:04;;;;;;;2.60;1.30;;;7.70;99.90;;;;;;4848958;29;20243;-59
2022/04/09 07:48:41;;;;;;;3.22;1.10;;;7.70;99.90;;;;;;4850176;29;20202;-57
2022/04/09 07:51:11;;;;;;;1.80;1.10;;;7.60;99.90;;;;;;4843472;29;20300;-59
2022/04/09 07:53:45;;;;;;;1.38;0.85;;;7.60;99.90;;;;;;4850189;29;20220;-60
2022/04/09 07:56:16;;;;;;;1.48;1.20;;;7.50;99.90;;;;;;4849368;29;20526;-59
2022/04/09 07:58:48;;;;;;;2.22;2.00;;;7.40;99.90;;;;;;4841003;29;20197;-59
2022/04/09 08:01:21;;;;;;;2.67;1.20;;;7.30;99.90;;;;;;4841978;29;20600;-59
2022/04/09 08:03:52;;;;;;;2.15;1.38;;;7.20;99.90;;;;;;4834029;29;20206;-60
2022/04/09 08:06:23;;;;;;;1.30;1.10;;;7.20;99.90;;;;;;4846485;29;20260;-58
2022/04/09 08:08:54;;;;;;;2.15;1.20;;;7.20;99.90;;;;;;4832426;29;20221;-59
2022/04/09 08:11:24;;;;;;;1.33;1.20;;;7.10;99.90;;;;;;4849046;29;20221;-60
2022/04/09 08:13:57;;;;;;;1.25;1.15;;;7.10;99.90;;;;;;4837588;29;20214;-59
2022/04/09 08:16:27;;;;;;;2.35;1.40;;;7.20;99.90;;;;;;4844515;29;20214;-57
2022/04/09 08:19:01;;;;;;;4.15;1.08;;;7.30;99.90;;;;;;4846088;29;20202;-59
2022/04/09 08:21:31;;;;;;;2.50;1.33;;;7.40;99.90;;;;;;4845683;29;20214;-59
2022/04/09 08:24:03;;;;;;;2.38;1.40;;;7.40;99.90;;;;;;4843976;29;20226;-59
2022/04/09 08:26:33;;;;;;;1.95;1.63;;;7.50;99.90;;;;;;4843971;29;20238;-59
2022/04/09 08:29:06;;;;;;;1.40;1.30;;;7.60;99.90;;;;;;4852178;29;20210;-58
2022/04/09 08:31:36;;;;;;;2.65;2.13;;;7.60;99.90;;;;;;4853421;29;20225;-59
2022/04/09 08:34:07;;;;;;;1.40;1.30;;;7.70;99.90;;;;;;4851184;29;20524;-59
2022/04/09 08:36:38;;;;;;;3.03;1.30;;;7.70;99.90;;;;;;4852849;29;20205;-59
2022/04/09 08:39:09;;;;;;;5.40;1.05;;;7.70;99.90;;;;;;4848660;29;20267;-59
2022/04/09 08:41:42;;;;;;;2.03;1.48;;;7.70;99.90;;;;;;4849024;29;20206;-59
2022/04/09 08:44:17;;;;;;;2.70;1.15;;;7.70;99.90;;;;;;4839528;29;20213;-59
2022/04/09 08:46:49;;;;;;;3.80;1.80;;;7.70;99.90;;;;;;4847463;29;20688;-59
2022/04/09 08:49:25;;;;;;;2.72;0.98;;;7.60;99.90;;;;;;4835994;29;20194;-59
2022/04/09 08:51:57;;;;;;;2.28;1.30;;;7.60;99.90;;;;;;4849102;29;20218;-59
2022/04/09 08:54:28;;;;;;;2.67;1.08;;;7.50;99.90;;;;;;4850443;29;20214;-59
2022/04/09 08:56:58;;;;;;;4.43;1.30;;;7.50;99.90;;;;;;4843277;29;20217;-58
2022/04/09 08:59:31;;;;;;;1.50;1.20;;;7.60;99.90;;;;;;4850564;29;20213;-59
2022/04/09 09:02:03;;;;;;;1.77;1.40;;;7.60;99.90;;;;;;4851673;29;20312;-59
2022/04/09 09:04:34;;;;;;;2.38;1.55;;;7.60;99.90;;;;;;4852951;29;20564;-59
2022/04/09 09:07:22;;;;;;;2.35;1.33;;;7.60;99.90;;;;;;4844199;29;20250;-59
2022/04/09 09:09:53;;;;;;;3.17;1.00;;;7.50;99.90;;;;;;4848070;29;20223;-59
2022/04/09 09:12:31;;;;;;;2.30;1.00;;;7.50;99.90;;;;;;4842194;29;20220;-59
2022/04/09 09:15:07;;;;;;;1.50;1.00;;;7.50;99.90;;;;;;4853038;29;20651;-60
2022/04/09 09:17:38;;;;;;;3.05;1.30;;;7.50;99.90;;;;;;4851708;29;20205;-59
2022/04/09 09:20:15;;;;;;;2.25;1.00;;;7.30;99.90;;;;;;4838027;29;20198;-59
2022/04/09 09:22:48;;;;;;;1.13;0.88;;;7.30;99.90;;;;;;4847148;29;20659;-59
2022/04/09 09:25:19;;;;;;;2.85;1.40;;;7.20;99.90;;;;;;4840528;29;20209;-59
2022/04/09 09:27:58;;;;;;;3.13;1.10;;;7.20;99.90;;;;;;4849163;29;20225;-59
2022/04/09 09:30:49;;;;;;;3.10;1.20;;;7.10;99.90;;;;;;4849995;29;20209;-59
2022/04/09 09:33:21;;;;;;;3.30;1.02;;;7.20;99.90;;;;;;4850202;29;20221;-57
2022/04/09 09:36:12;;;;;;;2.72;1.00;;;7.20;99.90;;;;;;4839865;29;20258;-59
2022/04/09 09:38:43;;;;;;;3.17;1.30;;;7.30;99.90;;;;;;4834451;29;20210;-60
2022/04/09 09:41:25;;;;;;;2.45;1.60;;;7.30;99.90;;;;;;4841121;29;20211;-56
2022/04/09 09:44:06;;;;;;;3.42;1.95;;;7.20;99.90;;;;;;4836636;29;20233;-59
2022/04/09 09:46:38;;;;;;;5.18;0.98;;;7.20;99.90;;;;;;4838259;29;20206;-59
2022/04/09 09:49:09;;;;;;;3.63;1.23;;;7.20;99.90;;;;;;4845052;29;20206;-58
2022/04/09 09:51:40;;;;;;;4.70;1.40;;;7.10;99.90;;;;;;4836392;29;20214;-59
2022/04/09 09:54:12;;;;;;;4.47;1.70;;;7.10;99.90;;;;;;4837072;29;20540;-59
2022/04/09 09:56:44;;;;;;;3.33;1.17;;;7.00;99.90;;;;;;4845122;29;20198;-58
2022/04/09 09:59:16;;;;;;;3.45;1.40;;;7.10;99.90;;;;;;4850393;29;20221;-58
2022/04/09 10:01:48;;;;;;;2.20;1.20;;;7.10;99.90;;;;;;4835881;29;20205;-59
2022/04/09 10:04:20;;;;;;;2.17;1.02;;;7.10;99.90;;;;;;4834495;29;20891;-58
2022/04/09 10:06:51;;;;;;;1.38;1.27;;;7.10;99.90;;;;;;4837501;29;20707;-58
2022/04/09 10:09:23;;;;;;;2.97;1.50;;;7.10;99.90;;;;;;4844768;29;20217;-59
2022/04/09 10:11:55;;;;;;;2.53;1.05;;;7.10;99.90;;;;;;4850482;29;20201;-59
2022/04/09 10:14:27;;;;;;;2.42;1.15;;;7.20;99.90;;;;;;4832932;29;20228;-59
2022/04/09 10:17:01;;;;;;;1.42;1.08;;;7.20;99.90;;;;;;4843022;29;20344;-59
2022/04/09 10:19:32;;;;;;;2.65;1.73;;;7.20;99.90;;;;;;4850893;29;20285;-59
2022/04/09 10:22:03;;;;;;;3.78;1.48;;;7.40;99.90;;;;;;4851649;29;20210;-58
2022/04/09 10:24:35;;;;;;;4.28;1.10;;;7.40;99.90;;;;;;4844097;29;20603;-60
2022/04/09 10:27:07;;;;;;;1.48;1.10;;;7.40;99.90;;;;;;4844028;29;20201;-57
2022/04/09 10:29:50;;;;;;;2.65;1.80;;;7.40;99.90;;;;;;4835893;29;20299;-60
2022/04/09 10:32:43;;;;;;;4.03;1.17;;;7.40;99.90;;;;;;4845087;29;20201;-59
2022/04/09 10:35:32;;;;;;;4.13;2.03;;;7.40;99.90;;;;;;4847372;29;20224;-59
2022/04/09 10:38:21;;;;;;;1.92;1.25;;;7.40;99.90;;;;;;4846233;29;20205;-58
2022/04/09 10:41:28;;;;;;;2.53;1.60;;;7.50;99.90;;;;;;4838911;29;20220;-55
2022/04/09 10:44:01;;;;;;;4.07;1.50;;;7.40;99.90;;;;;;4834691;29;20209;-57
2022/04/09 10:46:39;;;;;;;3.53;1.50;;;7.50;99.90;;;;;;4837684;29;20238;-59
2022/04/09 10:49:32;;;;;;;3.53;1.42;;;7.50;99.90;;;;;;4846493;29;20332;-58
2022/04/09 10:52:15;;;;;;;2.03;1.63;;;7.50;99.90;;;;;;4848073;29;20208;-59
2022/04/09 10:55:22;;;;;;;3.10;1.38;;;7.50;99.90;;;;;;4851272;29;20567;-58
2022/04/09 10:58:04;;;;;;;3.15;1.30;;;7.50;99.90;;;;;;4841252;29;20216;-60
2022/04/09 11:00:43;;;;;;;2.90;1.20;;;7.50;99.90;;;;;;4838653;29;20213;-59
2022/04/09 11:03:34;;;;;;;2.65;1.65;;;7.60;99.90;;;;;;4841347;29;20217;-58
2022/04/09 11:06:44;;;;;;;3.30;1.30;;;7.60;99.90;;;;;;4838904;29;20213;-59
2022/04/09 11:09:14;;;;;;;3.45;1.52;;;7.60;99.90;;;;;;4848667;29;20241;-57
2022/04/09 11:11:45;;;;;;;4.30;1.52;;;7.60;99.90;;;;;;4833539;29;20210;-58
2022/04/09 11:14:16;;;;;;;2.40;1.17;;;7.60;99.90;;;;;;4848206;29;20209;-59
2022/04/09 11:16:48;;;;;;;2.95;1.33;;;7.60;99.90;;;;;;4848469;29;20218;-59
2022/04/09 11:19:22;;;;;;;4.30;1.40;;;7.70;99.90;;;;;;4840983;29;20232;-59
2022/04/09 11:21:56;;;;;;;3.15;1.05;;;7.60;99.90;;;;;;4843697;29;20205;-59
2022/04/09 11:24:38;;;;;;;1.70;1.30;;;7.60;99.90;;;;;;4833243;29;20228;-59
2022/04/09 11:27:10;;;;;;;1.58;1.20;;;7.50;99.90;;;;;;4845505;29;20206;-57
2022/04/09 11:29:45;;;;;;;2.22;1.35;;;7.50;99.90;;;;;;4845526;29;20228;-58
2022/04/09 11:32:23;;;;;;;6.57;1.48;;;7.40;99.90;;;;;;4846157;29;20220;-58
2022/04/09 11:34:56;;;;;;;3.60;1.35;;;7.30;99.90;;;;;;4850204;29;20228;-58
2022/04/09 11:37:30;;;;;;;2.50;1.33;;;7.20;99.90;;;;;;4834530;29;20194;-58
2022/04/09 11:40:07;;;;;;;5.07;1.30;;;7.10;99.90;;;;;;4840117;29;20189;-59
2022/04/09 11:42:48;;;;;;;3.15;1.35;;;7.00;99.90;;;;;;4835965;29;20335;-59
2022/04/09 11:45:21;;;;;;;2.58;1.15;;;7.00;99.90;;;;;;4840229;29;20220;-59
2022/04/09 11:47:52;;;;;;;1.92;1.25;;;6.90;99.90;;;;;;4849824;29;20234;-57
2022/04/09 11:50:25;;;;;;;5.60;1.80;;;6.90;99.90;;;;;;4840816;29;20214;-59
2022/04/09 11:52:57;;;;;;;3.40;1.40;;;6.80;99.90;;;;;;4846140;29;20216;-56
2022/04/09 11:55:30;;;;;;;1.80;1.08;;;6.80;99.90;;;;;;4842374;29;20210;-55
2022/04/09 11:58:01;;;;;;;1.52;1.17;;;6.70;99.90;;;;;;4853429;29;20233;-59
2022/04/09 12:00:32;;;;;;;2.75;1.20;;;6.60;99.90;;;;;;4838958;29;20290;-57
2022/04/09 12:03:05;;;;;;;5.43;1.40;;;6.50;99.90;;;;;;4850351;29;20206;-58
2022/04/09 12:05:39;;;;;;;1.85;1.25;;;6.50;99.90;;;;;;4845079;29;20214;-58
2022/04/09 12:08:14;;;;;;;3.53;1.55;;;6.40;99.90;;;;;;4835432;29;20251;-57
2022/04/09 12:10:56;;;;;;;2.60;1.40;;;6.40;99.90;;;;;;4840784;29;20204;-57
2022/04/09 12:13:28;;;;;;;1.52;1.40;;;6.30;99.90;;;;;;4849141;29;20516;-58
2022/04/09 12:16:04;;;;;;;3.05;1.20;;;6.40;99.90;;;;;;4849037;29;20256;-56
2022/04/09 12:18:36;;;;;;;2.47;1.40;;;6.40;99.90;;;;;;4852829;29;20216;-58
2022/04/09 12:21:20;;;;;;;2.17;1.30;;;6.40;99.90;;;;;;4849432;29;20222;-58
2022/04/09 12:24:03;;;;;;;1.30;1.20;;;6.40;99.90;;;;;;4837091;29;20214;-58
2022/04/09 12:26:35;;;;;;;2.45;1.38;;;6.30;99.90;;;;;;4845806;29;20218;-58
2022/04/09 12:29:12;;;;;;;3.13;1.75;;;6.20;99.90;;;;;;4840817;29;20245;-59
2022/04/09 12:31:48;;;;;;;6.50;1.70;;;6.10;99.90;;;;;;4853567;29;20197;-57
2022/04/09 12:34:19;;;;;;;2.45;1.50;;;6.10;99.90;;;;;;4851870;29;20225;-58
2022/04/09 12:37:01;;;;;;;2.00;1.20;;;6.10;99.90;;;;;;4853381;29;20222;-57
2022/04/09 12:39:36;;;;;;;3.65;1.60;;;6.10;99.90;;;;;;4852047;29;20213;-56
2022/04/09 12:42:07;;;;;;;1.65;1.10;;;6.00;99.90;;;;;;4852481;29;20243;-56
2022/04/09 12:44:39;;;;;;;2.63;1.60;;;6.00;99.90;;;;;;4845972;29;20205;-58
2022/04/09 12:47:10;;;;;;;5.78;1.58;;;6.10;99.90;;;;;;4847032;29;20213;-58
2022/04/09 12:49:42;;;;;;;3.88;1.50;;;6.00;99.90;;;;;;4844951;29;20234;-58
2022/04/09 12:52:15;;;;;;;2.60;1.80;;;6.00;99.90;;;;;;4852569;29;20225;-56
2022/04/09 12:54:47;;;;;;;2.45;1.20;;;6.00;99.90;;;;;;4846656;29;20321;-58
2022/04/09 12:57:18;;;;;;;3.58;1.80;;;5.90;99.90;;;;;;4834898;29;20214;-58
2022/04/09 12:59:49;;;;;;;4.30;1.60;;;5.90;99.90;;;;;;4842327;29;20190;-58
2022/04/09 13:02:20;;;;;;;6.65;1.67;;;5.80;99.90;;;;;;4837342;29;20210;-57
2022/04/09 13:04:51;;;;;;;8.55;2.00;;;5.70;99.90;;;;;;4850974;29;20202;-56
2022/04/09 13:07:22;;;;;;;3.90;1.60;;;5.80;99.90;;;;;;4835059;29;20714;-58
2022/04/09 13:09:54;;;;;;;3.83;1.67;;;5.80;99.90;;;;;;4842057;29;20248;-56
2022/04/09 13:12:25;;;;;;;2.65;1.60;;;5.80;99.90;;;;;;4851112;29;20304;-57
2022/04/09 13:14:55;;;;;;;2.65;1.58;;;5.80;99.90;;;;;;4845977;29;20204;-56
2022/04/09 13:17:28;;;;;;;2.47;1.65;;;5.80;99.90;;;;;;4835454;29;20202;-57
2022/04/09 13:20:02;;;;;;;7.28;1.77;;;5.80;99.90;;;;;;4841461;29;20264;-58
2022/04/09 13:22:33;;;;;;;2.33;1.50;;;5.80;99.90;;;;;;4842595;29;20214;-56
2022/04/09 13:25:07;;;;;;;2.42;1.40;;;5.70;99.90;;;;;;4843991;29;20206;-58
2022/04/09 13:27:38;;;;;;;2.70;2.40;;;5.70;99.90;;;;;;4847964;29;20212;-58